sensor_id;sensor_type;location;lat;lon;timestamp;temperature;humidity
16229;DHT22;8222;51.462;12.630;2023-07-13T00:01:50;22.80;99.90
16229;DHT22;8222;51.462;12.630;2023-07-13T00:04:18;22.70;99.90
16229;DHT22;8222;51.462;12.630;2023-07-13T00:06:45;22.70;99.90
16229;DHT22;8222;51.462;12.630;2023-07-13T00:09:15;22.70;99.90
16229;DHT22;8222;51.462;12.630;2023-07-13T00:11:44;22.80;99.90
16229;DHT22;8222;51.462;12.630;2023-07-13T00:14:15;22.80;99.90
16229;DHT22;8222;51.462;12.630;2023-07-13T00:16:41;22.90;99.90
16229;DHT22;8222;51.462;12.630;2023-07-13T00:19:11;22.80;99.90
16229;DHT22;8222;51.462;12.630;2023-07-13T00:21:38;22.70;99.90
16229;DHT22;8222;51.462;12.630;2023-07-13T00:24:07;22.60;99.90
16229;DHT22;8222;51.462;12.630;2023-07-13T00:26:33;22.50;99.90
16229;DHT22;8222;51.462;12.630;2023-07-13T00:28:59;22.50;99.90
16229;DHT22;8222;51.462;12.630;2023-07-13T00:31:25;22.60;99.90
16229;DHT22;8222;51.462;12.630;2023-07-13T00:33:51;22.60;99.90
16229;DHT22;8222;51.462;12.630;2023-07-13T00:36:17;22.50;99.90
16229;DHT22;8222;51.462;12.630;2023-07-13T00:38:43;22.50;99.90
16229;DHT22;8222;51.462;12.630;2023-07-13T00:41:09;22.50;99.90
16229;DHT22;8222;51.462;12.630;2023-07-13T00:43:35;22.50;99.90
16229;DHT22;8222;51.462;12.630;2023-07-13T00:46:22;22.50;99.90
16229;DHT22;8222;51.462;12.630;2023-07-13T00:48:49;22.60;99.90
16229;DHT22;8222;51.462;12.630;2023-07-13T00:51:19;22.50;99.90
16229;DHT22;8222;51.462;12.630;2023-07-13T00:53:46;22.40;99.90
16229;DHT22;8222;51.462;12.630;2023-07-13T00:56:12;22.40;99.90
16229;DHT22;8222;51.462;12.630;2023-07-13T00:58:38;22.30;99.90
16229;DHT22;8222;51.462;12.630;2023-07-13T01:03:40;22.20;99.90
16229;DHT22;8222;51.462;12.630;2023-07-13T01:06:08;22.20;99.90
16229;DHT22;8222;51.462;12.630;2023-07-13T01:08:37;22.10;99.90
16229;DHT22;8222;51.462;12.630;2023-07-13T01:11:05;22.00;99.90
16229;DHT22;8222;51.462;12.630;2023-07-13T01:13:30;21.90;99.90
16229;DHT22;8222;51.462;12.630;2023-07-13T01:15:58;22.10;99.90
16229;DHT22;8222;51.462;12.630;2023-07-13T01:18:27;22.10;99.90
16229;DHT22;8222;51.462;12.630;2023-07-13T01:20:57;22.00;99.90
16229;DHT22;8222;51.462;12.630;2023-07-13T01:23:25;22.00;99.90
16229;DHT22;8222;51.462;12.630;2023-07-13T01:25:53;21.80;99.90
16229;DHT22;8222;51.462;12.630;2023-07-13T01:28:21;21.90;99.90
16229;DHT22;8222;51.462;12.630;2023-07-13T01:30:50;22.00;99.90
16229;DHT22;8222;51.462;12.630;2023-07-13T01:33:17;21.90;99.90
16229;DHT22;8222;51.462;12.630;2023-07-13T01:35:46;21.90;99.90
16229;DHT22;8222;51.462;12.630;2023-07-13T01:38:15;21.80;99.90
16229;DHT22;8222;51.462;12.630;2023-07-13T01:40:42;22.00;99.90
16229;DHT22;8222;51.462;12.630;2023-07-13T01:43:07;21.90;99.90
16229;DHT22;8222;51.462;12.630;2023-07-13T01:45:33;21.90;99.90
16229;DHT22;8222;51.462;12.630;2023-07-13T01:47:59;21.80;99.90
16229;DHT22;8222;51.462;12.630;2023-07-13T01:50:25;21.60;99.90
16229;DHT22;8222;51.462;12.630;2023-07-13T01:52:51;21.50;99.90
16229;DHT22;8222;51.462;12.630;2023-07-13T01:55:19;21.50;99.90
16229;DHT22;8222;51.462;12.630;2023-07-13T01:57:45;21.40;99.90
16229;DHT22;8222;51.462;12.630;2023-07-13T02:00:13;21.50;99.90
16229;DHT22;8222;51.462;12.630;2023-07-13T02:02:43;21.70;99.90
16229;DHT22;8222;51.462;12.630;2023-07-13T02:05:12;21.60;99.90
16229;DHT22;8222;51.462;12.630;2023-07-13T02:07:38;21.60;99.90
16229;DHT22;8222;51.462;12.630;2023-07-13T02:10:06;21.50;99.90
16229;DHT22;8222;51.462;12.630;2023-07-13T02:12:33;21.60;99.90
16229;DHT22;8222;51.462;12.630;2023-07-13T02:14:59;21.50;99.90
16229;DHT22;8222;51.462;12.630;2023-07-13T02:17:25;21.60;99.90
16229;DHT22;8222;51.462;12.630;2023-07-13T02:19:51;21.50;99.90
16229;DHT22;8222;51.462;12.630;2023-07-13T02:22:16;21.50;99.90
16229;DHT22;8222;51.462;12.630;2023-07-13T02:24:42;21.50;99.90
16229;DHT22;8222;51.462;12.630;2023-07-13T02:27:08;21.40;99.90
16229;DHT22;8222;51.462;12.630;2023-07-13T02:29:34;21.50;99.90
16229;DHT22;8222;51.462;12.630;2023-07-13T02:32:07;21.50;99.90
16229;DHT22;8222;51.462;12.630;2023-07-13T02:34:32;21.60;99.90
16229;DHT22;8222;51.462;12.630;2023-07-13T02:36:58;21.60;99.90
16229;DHT22;8222;51.462;12.630;2023-07-13T02:39:26;21.50;99.90
16229;DHT22;8222;51.462;12.630;2023-07-13T02:41:54;21.50;99.90
16229;DHT22;8222;51.462;12.630;2023-07-13T02:44:20;21.50;99.90
16229;DHT22;8222;51.462;12.630;2023-07-13T02:46:50;21.30;99.90
16229;DHT22;8222;51.462;12.630;2023-07-13T02:49:18;21.10;99.90
16229;DHT22;8222;51.462;12.630;2023-07-13T02:51:46;21.10;99.90
16229;DHT22;8222;51.462;12.630;2023-07-13T02:54:12;21.00;99.90
16229;DHT22;8222;51.462;12.630;2023-07-13T02:56:40;21.00;99.90
16229;DHT22;8222;51.462;12.630;2023-07-13T02:59:06;21.00;99.90
16229;DHT22;8222;51.462;12.630;2023-07-13T03:01:32;21.10;99.90
16229;DHT22;8222;51.462;12.630;2023-07-13T03:03:58;21.00;99.90
16229;DHT22;8222;51.462;12.630;2023-07-13T03:06:26;21.00;99.90
16229;DHT22;8222;51.462;12.630;2023-07-13T03:08:56;21.00;99.90
16229;DHT22;8222;51.462;12.630;2023-07-13T03:11:21;20.90;99.90
16229;DHT22;8222;51.462;12.630;2023-07-13T03:13:47;21.00;99.90
16229;DHT22;8222;51.462;12.630;2023-07-13T03:16:14;21.00;99.90
16229;DHT22;8222;51.462;12.630;2023-07-13T03:18:44;20.80;99.90
16229;DHT22;8222;51.462;12.630;2023-07-13T03:21:10;20.60;99.90
16229;DHT22;8222;51.462;12.630;2023-07-13T03:23:38;20.50;99.90
16229;DHT22;8222;51.462;12.630;2023-07-13T03:26:05;20.40;99.90
16229;DHT22;8222;51.462;12.630;2023-07-13T03:28:31;20.30;99.90
16229;DHT22;8222;51.462;12.630;2023-07-13T03:31:05;20.30;99.90
16229;DHT22;8222;51.462;12.630;2023-07-13T03:33:33;20.10;99.90
16229;DHT22;8222;51.462;12.630;2023-07-13T03:35:59;20.00;99.90
16229;DHT22;8222;51.462;12.630;2023-07-13T03:38:25;19.80;99.90
16229;DHT22;8222;51.462;12.630;2023-07-13T03:40:52;19.80;99.90
16229;DHT22;8222;51.462;12.630;2023-07-13T03:43:17;19.90;99.90
16229;DHT22;8222;51.462;12.630;2023-07-13T03:45:43;19.80;99.90
16229;DHT22;8222;51.462;12.630;2023-07-13T03:48:09;19.80;99.90
16229;DHT22;8222;51.462;12.630;2023-07-13T03:50:34;19.70;99.90
16229;DHT22;8222;51.462;12.630;2023-07-13T03:53:00;19.60;99.90
16229;DHT22;8222;51.462;12.630;2023-07-13T03:55:28;19.50;99.90
16229;DHT22;8222;51.462;12.630;2023-07-13T03:58:27;19.60;99.90
16229;DHT22;8222;51.462;12.630;2023-07-13T04:00:46;19.50;99.90
16229;DHT22;8222;51.462;12.630;2023-07-13T04:03:12;19.70;99.90
16229;DHT22;8222;51.462;12.630;2023-07-13T04:05:38;19.70;99.90
16229;DHT22;8222;51.462;12.630;2023-07-13T04:08:06;19.70;99.90
16229;DHT22;8222;51.462;12.630;2023-07-13T04:10:34;19.60;99.90
16229;DHT22;8222;51.462;12.630;2023-07-13T04:13:02;19.60;99.90
16229;DHT22;8222;51.462;12.630;2023-07-13T04:15:29;19.70;99.90
16229;DHT22;8222;51.462;12.630;2023-07-13T04:17:58;19.60;99.90
16229;DHT22;8222;51.462;12.630;2023-07-13T04:20:25;19.80;99.90
16229;DHT22;8222;51.462;12.630;2023-07-13T04:22:51;19.70;99.90
16229;DHT22;8222;51.462;12.630;2023-07-13T04:25:20;19.90;99.90
16229;DHT22;8222;51.462;12.630;2023-07-13T04:27:45;20.10;99.90
16229;DHT22;8222;51.462;12.630;2023-07-13T04:30:13;20.20;99.90
16229;DHT22;8222;51.462;12.630;2023-07-13T04:32:41;20.50;99.90
16229;DHT22;8222;51.462;12.630;2023-07-13T04:35:09;20.60;99.90
16229;DHT22;8222;51.462;12.630;2023-07-13T04:37:35;20.60;99.90
16229;DHT22;8222;51.462;12.630;2023-07-13T04:40:01;20.70;99.90
16229;DHT22;8222;51.462;12.630;2023-07-13T04:42:26;20.60;99.90
16229;DHT22;8222;51.462;12.630;2023-07-13T04:44:52;20.50;99.90
16229;DHT22;8222;51.462;12.630;2023-07-13T04:47:21;20.50;99.90
16229;DHT22;8222;51.462;12.630;2023-07-13T04:49:46;20.50;99.90
16229;DHT22;8222;51.462;12.630;2023-07-13T04:52:12;20.50;99.90
16229;DHT22;8222;51.462;12.630;2023-07-13T04:54:38;20.40;99.90
16229;DHT22;8222;51.462;12.630;2023-07-13T04:57:06;20.30;99.90
16229;DHT22;8222;51.462;12.630;2023-07-13T04:59:33;20.50;99.90
16229;DHT22;8222;51.462;12.630;2023-07-13T05:01:59;20.40;99.90
16229;DHT22;8222;51.462;12.630;2023-07-13T05:04:27;20.30;99.90
16229;DHT22;8222;51.462;12.630;2023-07-13T05:06:53;20.30;99.90
16229;DHT22;8222;51.462;12.630;2023-07-13T05:09:21;20.30;99.90
16229;DHT22;8222;51.462;12.630;2023-07-13T05:11:46;20.40;99.90
16229;DHT22;8222;51.462;12.630;2023-07-13T05:14:12;20.50;99.90
16229;DHT22;8222;51.462;12.630;2023-07-13T05:16:40;20.70;99.90
16229;DHT22;8222;51.462;12.630;2023-07-13T05:19:08;20.90;99.90
16229;DHT22;8222;51.462;12.630;2023-07-13T05:21:36;21.00;99.90
16229;DHT22;8222;51.462;12.630;2023-07-13T05:24:01;21.00;99.90
16229;DHT22;8222;51.462;12.630;2023-07-13T05:26:32;21.10;99.90
16229;DHT22;8222;51.462;12.630;2023-07-13T05:28:57;21.10;99.90
16229;DHT22;8222;51.462;12.630;2023-07-13T05:31:25;21.10;99.90
16229;DHT22;8222;51.462;12.630;2023-07-13T05:33:54;21.10;99.90
16229;DHT22;8222;51.462;12.630;2023-07-13T05:36:19;21.20;99.90
16229;DHT22;8222;51.462;12.630;2023-07-13T05:38:47;21.30;99.90
16229;DHT22;8222;51.462;12.630;2023-07-13T05:41:13;21.40;99.90
16229;DHT22;8222;51.462;12.630;2023-07-13T05:43:39;21.70;99.90
16229;DHT22;8222;51.462;12.630;2023-07-13T05:46:04;21.80;99.90
16229;DHT22;8222;51.462;12.630;2023-07-13T05:48:30;22.00;99.90
16229;DHT22;8222;51.462;12.630;2023-07-13T05:50:55;22.20;99.90
16229;DHT22;8222;51.462;12.630;2023-07-13T05:53:21;22.30;99.90
16229;DHT22;8222;51.462;12.630;2023-07-13T05:55:56;22.40;99.90
16229;DHT22;8222;51.462;12.630;2023-07-13T05:58:22;22.50;99.90
16229;DHT22;8222;51.462;12.630;2023-07-13T06:00:48;22.60;99.90
16229;DHT22;8222;51.462;12.630;2023-07-13T06:03:16;22.80;99.90
16229;DHT22;8222;51.462;12.630;2023-07-13T06:05:42;23.00;99.90
16229;DHT22;8222;51.462;12.630;2023-07-13T06:08:08;23.20;99.90
16229;DHT22;8222;51.462;12.630;2023-07-13T06:10:35;23.20;99.90
16229;DHT22;8222;51.462;12.630;2023-07-13T06:13:06;23.80;99.90
16229;DHT22;8222;51.462;12.630;2023-07-13T06:15:34;23.60;99.90
16229;DHT22;8222;51.462;12.630;2023-07-13T06:18:00;23.40;99.90
16229;DHT22;8222;51.462;12.630;2023-07-13T06:20:28;23.40;99.90
16229;DHT22;8222;51.462;12.630;2023-07-13T06:22:54;23.40;99.90
16229;DHT22;8222;51.462;12.630;2023-07-13T06:25:20;23.50;99.90
16229;DHT22;8222;51.462;12.630;2023-07-13T06:27:46;23.50;99.90
16229;DHT22;8222;51.462;12.630;2023-07-13T06:30:11;23.40;99.90
16229;DHT22;8222;51.462;12.630;2023-07-13T06:32:37;23.40;99.90
16229;DHT22;8222;51.462;12.630;2023-07-13T06:35:03;23.30;99.90
16229;DHT22;8222;51.462;12.630;2023-07-13T06:37:29;23.40;99.90
16229;DHT22;8222;51.462;12.630;2023-07-13T06:39:55;23.50;99.90
16229;DHT22;8222;51.462;12.630;2023-07-13T06:42:20;23.80;99.90
16229;DHT22;8222;51.462;12.630;2023-07-13T06:44:46;24.10;99.90
16229;DHT22;8222;51.462;12.630;2023-07-13T06:47:14;24.10;99.90
16229;DHT22;8222;51.462;12.630;2023-07-13T06:49:39;24.10;99.90
16229;DHT22;8222;51.462;12.630;2023-07-13T06:52:05;24.20;99.90
16229;DHT22;8222;51.462;12.630;2023-07-13T06:54:33;24.10;99.90
16229;DHT22;8222;51.462;12.630;2023-07-13T06:57:00;24.20;99.90
16229;DHT22;8222;51.462;12.630;2023-07-13T06:59:28;24.20;99.90
16229;DHT22;8222;51.462;12.630;2023-07-13T07:01:54;24.30;99.90
16229;DHT22;8222;51.462;12.630;2023-07-13T07:04:19;24.30;99.90
16229;DHT22;8222;51.462;12.630;2023-07-13T07:06:47;24.50;99.90
16229;DHT22;8222;51.462;12.630;2023-07-13T07:09:13;24.60;99.90
16229;DHT22;8222;51.462;12.630;2023-07-13T07:11:39;24.50;99.90
16229;DHT22;8222;51.462;12.630;2023-07-13T07:14:05;24.40;99.90
16229;DHT22;8222;51.462;12.630;2023-07-13T07:16:30;24.50;99.90
16229;DHT22;8222;51.462;12.630;2023-07-13T07:18:58;24.70;99.90
16229;DHT22;8222;51.462;12.630;2023-07-13T07:21:26;24.60;99.90
16229;DHT22;8222;51.462;12.630;2023-07-13T07:23:56;24.60;99.90
16229;DHT22;8222;51.462;12.630;2023-07-13T07:26:22;24.70;98.80
16229;DHT22;8222;51.462;12.630;2023-07-13T07:28:51;24.70;99.80
16229;DHT22;8222;51.462;12.630;2023-07-13T07:31:16;24.90;99.90
16229;DHT22;8222;51.462;12.630;2023-07-13T07:33:44;25.20;98.30
16229;DHT22;8222;51.462;12.630;2023-07-13T07:36:12;25.00;97.10
16229;DHT22;8222;51.462;12.630;2023-07-13T07:38:38;24.90;96.70
16229;DHT22;8222;51.462;12.630;2023-07-13T07:41:06;24.80;97.50
16229;DHT22;8222;51.462;12.630;2023-07-13T07:43:32;25.20;96.90
16229;DHT22;8222;51.462;12.630;2023-07-13T07:45:58;25.40;96.50
16229;DHT22;8222;51.462;12.630;2023-07-13T07:48:23;25.50;96.10
16229;DHT22;8222;51.462;12.630;2023-07-13T07:50:51;25.40;94.60
16229;DHT22;8222;51.462;12.630;2023-07-13T07:53:17;25.30;94.40
16229;DHT22;8222;51.462;12.630;2023-07-13T07:55:43;25.20;92.60
16229;DHT22;8222;51.462;12.630;2023-07-13T07:58:11;25.20;92.30
16229;DHT22;8222;51.462;12.630;2023-07-13T08:00:36;25.40;91.70
16229;DHT22;8222;51.462;12.630;2023-07-13T08:03:02;25.70;90.50
16229;DHT22;8222;51.462;12.630;2023-07-13T08:05:30;26.10;91.10
16229;DHT22;8222;51.462;12.630;2023-07-13T08:08:00;26.30;92.00
16229;DHT22;8222;51.462;12.630;2023-07-13T08:10:26;26.50;91.90
16229;DHT22;8222;51.462;12.630;2023-07-13T08:12:52;26.80;90.70
16229;DHT22;8222;51.462;12.630;2023-07-13T08:15:18;26.80;88.90
16229;DHT22;8222;51.462;12.630;2023-07-13T08:17:51;27.00;89.40
16229;DHT22;8222;51.462;12.630;2023-07-13T08:20:17;27.10;89.60
16229;DHT22;8222;51.462;12.630;2023-07-13T08:22:45;27.10;88.30
16229;DHT22;8222;51.462;12.630;2023-07-13T08:25:13;27.10;86.40
16229;DHT22;8222;51.462;12.630;2023-07-13T08:27:41;27.30;85.20
16229;DHT22;8222;51.462;12.630;2023-07-13T08:30:07;27.00;81.90
16229;DHT22;8222;51.462;12.630;2023-07-13T08:32:33;26.90;82.40
16229;DHT22;8222;51.462;12.630;2023-07-13T08:35:03;26.60;82.10
16229;DHT22;8222;51.462;12.630;2023-07-13T08:37:31;26.70;83.40
16229;DHT22;8222;51.462;12.630;2023-07-13T08:39:57;27.10;83.00
16229;DHT22;8222;51.462;12.630;2023-07-13T08:42:50;27.50;82.30
16229;DHT22;8222;51.462;12.630;2023-07-13T08:48:20;27.80;79.50
16229;DHT22;8222;51.462;12.630;2023-07-13T08:53:42;27.80;76.20
16229;DHT22;8222;51.462;12.630;2023-07-13T08:56:22;27.50;77.90
16229;DHT22;8222;51.462;12.630;2023-07-13T08:58:55;27.40;78.30
16229;DHT22;8222;51.462;12.630;2023-07-13T09:01:22;27.30;77.40
16229;DHT22;8222;51.462;12.630;2023-07-13T09:04:09;27.50;77.70
16229;DHT22;8222;51.462;12.630;2023-07-13T09:06:56;27.50;74.60
16229;DHT22;8222;51.462;12.630;2023-07-13T09:09:55;27.50;74.90
16229;DHT22;8222;51.462;12.630;2023-07-13T09:15:02;27.50;73.60
16229;DHT22;8222;51.462;12.630;2023-07-13T09:17:35;27.40;74.20
16229;DHT22;8222;51.462;12.630;2023-07-13T09:22:53;27.80;75.70
16229;DHT22;8222;51.462;12.630;2023-07-13T09:25:35;27.90;74.60
16229;DHT22;8222;51.462;12.630;2023-07-13T09:33:34;27.90;73.70
16229;DHT22;8222;51.462;12.630;2023-07-13T09:36:01;27.70;71.20
16229;DHT22;8222;51.462;12.630;2023-07-13T09:38:29;27.70;73.00
16229;DHT22;8222;51.462;12.630;2023-07-13T09:44:11;27.70;71.20
16229;DHT22;8222;51.462;12.630;2023-07-13T09:46:42;27.50;71.00
16229;DHT22;8222;51.462;12.630;2023-07-13T09:49:11;27.50;71.70
16229;DHT22;8222;51.462;12.630;2023-07-13T09:51:42;27.40;70.60
16229;DHT22;8222;51.462;12.630;2023-07-13T09:54:28;27.30;69.20
16229;DHT22;8222;51.462;12.630;2023-07-13T09:56:58;27.40;70.40
16229;DHT22;8222;51.462;12.630;2023-07-13T09:59:32;27.70;71.40
16229;DHT22;8222;51.462;12.630;2023-07-13T10:02:00;28.00;68.60
16229;DHT22;8222;51.462;12.630;2023-07-13T10:04:34;28.30;67.80
16229;DHT22;8222;51.462;12.630;2023-07-13T10:07:07;28.40;67.70
16229;DHT22;8222;51.462;12.630;2023-07-13T10:09:33;28.20;67.30
16229;DHT22;8222;51.462;12.630;2023-07-13T10:12:12;27.80;68.10
16229;DHT22;8222;51.462;12.630;2023-07-13T10:14:41;27.50;67.60
16229;DHT22;8222;51.462;12.630;2023-07-13T10:17:12;27.30;69.80
16229;DHT22;8222;51.462;12.630;2023-07-13T10:19:44;27.10;69.80
16229;DHT22;8222;51.462;12.630;2023-07-13T10:22:37;26.80;70.20
16229;DHT22;8222;51.462;12.630;2023-07-13T10:25:25;26.50;69.90
16229;DHT22;8222;51.462;12.630;2023-07-13T10:27:54;26.60;69.00
16229;DHT22;8222;51.462;12.630;2023-07-13T10:30:25;26.80;68.60
16229;DHT22;8222;51.462;12.630;2023-07-13T10:32:57;26.90;69.10
16229;DHT22;8222;51.462;12.630;2023-07-13T10:35:31;27.50;69.60
16229;DHT22;8222;51.462;12.630;2023-07-13T10:38:03;27.70;70.00
16229;DHT22;8222;51.462;12.630;2023-07-13T10:40:40;28.20;68.50
16229;DHT22;8222;51.462;12.630;2023-07-13T10:43:29;28.20;68.50
16229;DHT22;8222;51.462;12.630;2023-07-13T10:45:57;28.60;69.40
16229;DHT22;8222;51.462;12.630;2023-07-13T10:48:25;28.90;66.40
16229;DHT22;8222;51.462;12.630;2023-07-13T10:50:52;28.90;65.70
16229;DHT22;8222;51.462;12.630;2023-07-13T10:53:33;29.00;65.70
16229;DHT22;8222;51.462;12.630;2023-07-13T10:56:04;29.20;65.10
16229;DHT22;8222;51.462;12.630;2023-07-13T10:58:41;29.50;62.70
16229;DHT22;8222;51.462;12.630;2023-07-13T11:01:17;29.80;62.20
16229;DHT22;8222;51.462;12.630;2023-07-13T11:19:08;29.80;58.60
16229;DHT22;8222;51.462;12.630;2023-07-13T11:24:51;30.30;60.20
16229;DHT22;8222;51.462;12.630;2023-07-13T11:30:23;30.60;59.10
16229;DHT22;8222;51.462;12.630;2023-07-13T11:35:34;30.20;59.40
16229;DHT22;8222;51.462;12.630;2023-07-13T11:38:01;29.90;59.20
16229;DHT22;8222;51.462;12.630;2023-07-13T11:40:30;29.60;60.40
16229;DHT22;8222;51.462;12.630;2023-07-13T11:43:02;29.20;60.70
16229;DHT22;8222;51.462;12.630;2023-07-13T11:45:34;29.10;60.40
16229;DHT22;8222;51.462;12.630;2023-07-13T11:47:59;29.00;60.50
16229;DHT22;8222;51.462;12.630;2023-07-13T11:50:27;28.80;60.60
16229;DHT22;8222;51.462;12.630;2023-07-13T11:52:54;28.70;61.10
16229;DHT22;8222;51.462;12.630;2023-07-13T11:55:23;28.90;61.70
16229;DHT22;8222;51.462;12.630;2023-07-13T11:57:57;29.20;60.90
16229;DHT22;8222;51.462;12.630;2023-07-13T12:00:29;29.60;60.90
16229;DHT22;8222;51.462;12.630;2023-07-13T12:02:58;29.50;60.20
16229;DHT22;8222;51.462;12.630;2023-07-13T12:05:27;29.10;61.30
16229;DHT22;8222;51.462;12.630;2023-07-13T12:07:53;28.90;62.70
16229;DHT22;8222;51.462;12.630;2023-07-13T12:10:23;29.00;61.20
16229;DHT22;8222;51.462;12.630;2023-07-13T12:13:03;28.80;61.80
16229;DHT22;8222;51.462;12.630;2023-07-13T12:15:37;28.60;62.10
16229;DHT22;8222;51.462;12.630;2023-07-13T12:18:21;28.80;59.90
16229;DHT22;8222;51.462;12.630;2023-07-13T12:20:50;28.70;60.50
16229;DHT22;8222;51.462;12.630;2023-07-13T12:23:25;28.90;60.90
16229;DHT22;8222;51.462;12.630;2023-07-13T12:25:53;28.90;61.20
16229;DHT22;8222;51.462;12.630;2023-07-13T12:28:21;29.10;61.70
16229;DHT22;8222;51.462;12.630;2023-07-13T12:30:48;29.60;60.10
16229;DHT22;8222;51.462;12.630;2023-07-13T12:33:16;29.70;58.20
16229;DHT22;8222;51.462;12.630;2023-07-13T12:35:46;29.90;57.60
16229;DHT22;8222;51.462;12.630;2023-07-13T12:38:13;30.00;57.00
16229;DHT22;8222;51.462;12.630;2023-07-13T12:40:39;30.00;59.00
16229;DHT22;8222;51.462;12.630;2023-07-13T12:43:14;29.80;56.60
16229;DHT22;8222;51.462;12.630;2023-07-13T12:48:28;29.60;56.70
16229;DHT22;8222;51.462;12.630;2023-07-13T12:50:55;29.60;57.20
16229;DHT22;8222;51.462;12.630;2023-07-13T12:53:29;29.50;56.80
16229;DHT22;8222;51.462;12.630;2023-07-13T12:56:02;29.20;57.00
16229;DHT22;8222;51.462;12.630;2023-07-13T12:58:39;29.20;57.20
16229;DHT22;8222;51.462;12.630;2023-07-13T13:01:12;29.50;57.80
16229;DHT22;8222;51.462;12.630;2023-07-13T13:03:48;29.80;56.10
16229;DHT22;8222;51.462;12.630;2023-07-13T13:08:45;30.50;53.10
16229;DHT22;8222;51.462;12.630;2023-07-13T13:11:11;30.50;53.20
16229;DHT22;8222;51.462;12.630;2023-07-13T13:13:39;30.90;53.70
16229;DHT22;8222;51.462;12.630;2023-07-13T13:18:46;30.60;52.40
16229;DHT22;8222;51.462;12.630;2023-07-13T13:21:11;30.00;52.40
16229;DHT22;8222;51.462;12.630;2023-07-13T13:23:42;30.00;53.30
16229;DHT22;8222;51.462;12.630;2023-07-13T13:26:14;30.30;52.10
16229;DHT22;8222;51.462;12.630;2023-07-13T13:28:48;30.30;51.00
16229;DHT22;8222;51.462;12.630;2023-07-13T13:31:17;30.40;50.30
16229;DHT22;8222;51.462;12.630;2023-07-13T13:33:44;30.40;50.80
16229;DHT22;8222;51.462;12.630;2023-07-13T13:36:22;30.30;51.00
16229;DHT22;8222;51.462;12.630;2023-07-13T13:38:49;30.40;51.80
16229;DHT22;8222;51.462;12.630;2023-07-13T13:41:15;30.10;51.90
16229;DHT22;8222;51.462;12.630;2023-07-13T13:43:42;30.00;52.20
16229;DHT22;8222;51.462;12.630;2023-07-13T13:46:20;30.20;53.40
16229;DHT22;8222;51.462;12.630;2023-07-13T13:48:50;30.40;53.10
16229;DHT22;8222;51.462;12.630;2023-07-13T13:51:20;30.50;53.90
16229;DHT22;8222;51.462;12.630;2023-07-13T13:53:49;30.40;53.70
16229;DHT22;8222;51.462;12.630;2023-07-13T13:56:19;30.50;53.60
16229;DHT22;8222;51.462;12.630;2023-07-13T13:58:45;30.40;52.90
16229;DHT22;8222;51.462;12.630;2023-07-13T14:01:20;30.10;53.00
16229;DHT22;8222;51.462;12.630;2023-07-13T14:03:46;30.10;54.10
16229;DHT22;8222;51.462;12.630;2023-07-13T14:06:14;30.00;54.30
16229;DHT22;8222;51.462;12.630;2023-07-13T14:08:41;30.40;53.70
16229;DHT22;8222;51.462;12.630;2023-07-13T14:11:12;30.30;53.20
16229;DHT22;8222;51.462;12.630;2023-07-13T14:13:47;30.00;53.10
16229;DHT22;8222;51.462;12.630;2023-07-13T14:16:20;30.10;54.10
16229;DHT22;8222;51.462;12.630;2023-07-13T14:18:47;30.30;54.80
16229;DHT22;8222;51.462;12.630;2023-07-13T14:21:18;30.50;55.50
16229;DHT22;8222;51.462;12.630;2023-07-13T14:23:45;30.60;54.60
16229;DHT22;8222;51.462;12.630;2023-07-13T14:26:14;30.80;52.80
16229;DHT22;8222;51.462;12.630;2023-07-13T14:28:46;30.80;53.00
16229;DHT22;8222;51.462;12.630;2023-07-13T14:31:13;30.60;52.10
16229;DHT22;8222;51.462;12.630;2023-07-13T14:33:41;30.20;52.70
16229;DHT22;8222;51.462;12.630;2023-07-13T14:38:51;30.10;53.30
16229;DHT22;8222;51.462;12.630;2023-07-13T14:41:17;30.30;52.30
16229;DHT22;8222;51.462;12.630;2023-07-13T14:43:45;30.50;52.40
16229;DHT22;8222;51.462;12.630;2023-07-13T14:46:40;30.40;52.30
16229;DHT22;8222;51.462;12.630;2023-07-13T14:49:45;30.40;52.80
16229;DHT22;8222;51.462;12.630;2023-07-13T14:52:18;30.40;52.30
16229;DHT22;8222;51.462;12.630;2023-07-13T14:54:47;30.20;51.60
16229;DHT22;8222;51.462;12.630;2023-07-13T14:57:17;30.00;52.30
16229;DHT22;8222;51.462;12.630;2023-07-13T14:59:44;30.10;53.00
16229;DHT22;8222;51.462;12.630;2023-07-13T15:04:51;30.00;53.30
16229;DHT22;8222;51.462;12.630;2023-07-13T15:07:17;29.80;52.60
16229;DHT22;8222;51.462;12.630;2023-07-13T15:09:44;29.50;52.50
16229;DHT22;8222;51.462;12.630;2023-07-13T15:12:15;29.30;53.10
16229;DHT22;8222;51.462;12.630;2023-07-13T15:14:40;29.30;53.40
16229;DHT22;8222;51.462;12.630;2023-07-13T15:17:22;29.40;53.00
16229;DHT22;8222;51.462;12.630;2023-07-13T15:19:49;29.30;52.60
16229;DHT22;8222;51.462;12.630;2023-07-13T15:22:15;29.20;53.10
16229;DHT22;8222;51.462;12.630;2023-07-13T15:24:43;29.10;52.90
16229;DHT22;8222;51.462;12.630;2023-07-13T15:27:12;28.90;55.10
16229;DHT22;8222;51.462;12.630;2023-07-13T15:29:37;28.90;53.00
16229;DHT22;8222;51.462;12.630;2023-07-13T15:32:12;28.80;52.60
16229;DHT22;8222;51.462;12.630;2023-07-13T15:34:38;28.80;53.10
16229;DHT22;8222;51.462;12.630;2023-07-13T15:37:08;29.20;54.30
16229;DHT22;8222;51.462;12.630;2023-07-13T15:39:37;29.80;52.30
16229;DHT22;8222;51.462;12.630;2023-07-13T15:42:05;30.20;52.10
16229;DHT22;8222;51.462;12.630;2023-07-13T15:44:34;30.60;52.80
16229;DHT22;8222;51.462;12.630;2023-07-13T15:47:01;30.30;52.20
16229;DHT22;8222;51.462;12.630;2023-07-13T15:49:28;29.70;52.70
16229;DHT22;8222;51.462;12.630;2023-07-13T15:51:54;29.20;53.10
16229;DHT22;8222;51.462;12.630;2023-07-13T15:54:20;28.80;54.00
16229;DHT22;8222;51.462;12.630;2023-07-13T15:56:54;28.60;55.10
16229;DHT22;8222;51.462;12.630;2023-07-13T15:59:20;28.50;54.20
16229;DHT22;8222;51.462;12.630;2023-07-13T16:01:45;28.70;54.30
16229;DHT22;8222;51.462;12.630;2023-07-13T16:04:14;28.80;53.60
16229;DHT22;8222;51.462;12.630;2023-07-13T16:06:41;28.80;54.40
16229;DHT22;8222;51.462;12.630;2023-07-13T16:09:09;28.90;54.50
16229;DHT22;8222;51.462;12.630;2023-07-13T16:11:40;29.10;54.20
16229;DHT22;8222;51.462;12.630;2023-07-13T16:14:06;29.20;55.40
16229;DHT22;8222;51.462;12.630;2023-07-13T16:16:33;30.10;53.60
16229;DHT22;8222;51.462;12.630;2023-07-13T16:19:04;30.60;52.90
16229;DHT22;8222;51.462;12.630;2023-07-13T16:21:35;30.50;52.40
16229;DHT22;8222;51.462;12.630;2023-07-13T16:24:04;30.30;53.00
16229;DHT22;8222;51.462;12.630;2023-07-13T16:26:32;30.60;52.50
16229;DHT22;8222;51.462;12.630;2023-07-13T16:29:10;31.00;53.40
16229;DHT22;8222;51.462;12.630;2023-07-13T16:31:38;31.70;52.70
16229;DHT22;8222;51.462;12.630;2023-07-13T16:34:05;31.90;52.10
16229;DHT22;8222;51.462;12.630;2023-07-13T16:36:35;31.00;52.80
16229;DHT22;8222;51.462;12.630;2023-07-13T16:39:00;31.00;52.50
16229;DHT22;8222;51.462;12.630;2023-07-13T16:41:30;30.80;52.60